createdAt,value
2023-02-05T00:04:24.915Z,-4.09
2023-02-05T00:09:31.060Z,-4.18
2023-02-05T00:14:34.736Z,-4.21
2023-02-05T00:19:38.094Z,-4.14
2023-02-05T00:24:41.530Z,-4.01
2023-02-05T00:29:44.692Z,-3.91
2023-02-05T00:34:47.956Z,-3.82
2023-02-05T00:39:51.026Z,-3.77
2023-02-05T00:44:54.209Z,-3.74
2023-02-05T00:49:57.503Z,-3.71
2023-02-05T00:55:00.736Z,-3.68
2023-02-05T01:00:04.608Z,-3.61
2023-02-05T01:05:08.518Z,-3.49
2023-02-05T01:10:12.171Z,-3.36
2023-02-05T01:15:15.442Z,-3.27
2023-02-05T01:20:20.612Z,-3.25
2023-02-05T01:25:23.975Z,-3.26
2023-02-05T01:30:27.801Z,-3.27
2023-02-05T01:35:31.337Z,-3.28
2023-02-05T01:40:34.864Z,-3.33
2023-02-05T01:46:03.878Z,-3.34
2023-02-05T01:51:12.134Z,-3.29
2023-02-05T01:56:22.454Z,-3.21
2023-02-05T02:01:27.501Z,-3.14
2023-02-05T02:06:36.012Z,-3.11
2023-02-05T02:11:42.848Z,-3.10
2023-02-05T02:16:46.965Z,-3.13
2023-02-05T02:22:08.388Z,-3.20
2023-02-05T02:27:49.359Z,-3.24
2023-02-05T02:33:43.434Z,-3.23
2023-02-05T02:38:52.914Z,-3.14
2023-02-05T02:43:58.605Z,-3.09
2023-02-05T02:49:06.490Z,-3.11
2023-02-05T02:54:15.989Z,-3.10
2023-02-05T02:59:25.511Z,-3.05
2023-02-05T03:04:44.656Z,-3.07
2023-02-05T03:09:54.750Z,-3.08
2023-02-05T03:14:59.060Z,-3.06
2023-02-05T03:20:18.953Z,-2.99
2023-02-05T03:25:23.776Z,-2.95
2023-02-05T03:30:39.637Z,-2.94
2023-02-05T03:35:51.407Z,-2.94
2023-02-05T03:41:01.849Z,-2.97
2023-02-05T03:46:53.397Z,-2.99
2023-02-05T03:52:04.372Z,-2.94
2023-02-05T03:57:16.213Z,-2.88
2023-02-05T04:02:22.206Z,-2.85
2023-02-05T04:07:25.982Z,-2.83
2023-02-05T04:12:29.291Z,-2.85
2023-02-05T04:17:33.182Z,-2.89
2023-02-05T04:22:36.430Z,-2.94
2023-02-05T04:27:39.710Z,-2.98
2023-02-05T04:32:43.264Z,-3.01
2023-02-05T04:37:46.888Z,-2.98
2023-02-05T04:42:50.749Z,-2.95
2023-02-05T04:47:54.040Z,-2.92
2023-02-05T04:52:57.100Z,-2.96
2023-02-05T04:58:00.589Z,-2.99
2023-02-05T05:03:03.854Z,-3.03
2023-02-05T05:08:06.923Z,-3.05
2023-02-05T05:13:10.148Z,-3.06
2023-02-05T05:18:13.208Z,-3.04
2023-02-05T05:23:16.607Z,-2.99
2023-02-05T05:28:19.932Z,-2.97
2023-02-05T05:33:23.080Z,-3.01
2023-02-05T05:38:26.282Z,-3.07
2023-02-05T05:43:47.914Z,-3.09
2023-02-05T05:48:53.321Z,-3.09
2023-02-05T05:53:57.005Z,-3.05
2023-02-05T05:59:00.132Z,-3.03
2023-02-05T06:04:04.336Z,-2.97
2023-02-05T06:09:07.763Z,-2.92
2023-02-05T06:14:10.912Z,-2.93
2023-02-05T06:19:14.529Z,-2.95
2023-02-05T06:24:17.839Z,-2.99
2023-02-05T06:29:20.899Z,-3.03
2023-02-05T06:34:24.284Z,-3.04
2023-02-05T06:39:27.758Z,-2.99
2023-02-05T06:44:31.078Z,-2.91
2023-02-05T06:49:34.318Z,-2.86
2023-02-05T06:54:38.984Z,-2.84
2023-02-05T06:59:42.377Z,-2.83
2023-02-05T07:04:46.536Z,-2.81
2023-02-05T07:09:49.908Z,-2.80
2023-02-05T07:14:53.143Z,-2.80
2023-02-05T07:19:56.391Z,-2.79
2023-02-05T07:25:02.132Z,-2.74
2023-02-05T07:30:07.973Z,-2.66
2023-02-05T07:35:11.452Z,-2.55
2023-02-05T07:40:14.778Z,-2.45
2023-02-05T07:45:18.113Z,-2.44
2023-02-05T07:50:21.616Z,-2.42
2023-02-05T07:55:24.847Z,-2.37
2023-02-05T08:00:28.301Z,-2.32
2023-02-05T08:05:32.200Z,-2.27
2023-02-05T08:10:35.844Z,-2.05
2023-02-05T08:15:41.821Z,-1.83
2023-02-05T08:20:45.725Z,-1.70
2023-02-05T08:25:53.087Z,-1.62
2023-02-05T08:30:56.801Z,-1.60
2023-02-05T08:36:00.043Z,-1.56
2023-02-05T08:41:14.259Z,-1.53
2023-02-05T08:46:21.252Z,-1.47
2023-02-05T08:51:24.719Z,-1.34
2023-02-05T08:56:27.970Z,-1.20
2023-02-05T09:01:31.405Z,-1.08
2023-02-05T09:06:35.407Z,-1.03
2023-02-05T09:11:38.697Z,-1.03
2023-02-05T09:16:42.230Z,-0.91
2023-02-05T09:21:45.451Z,-0.84
2023-02-05T09:26:48.602Z,-0.77
2023-02-05T09:31:52.311Z,-0.70
2023-02-05T09:36:55.600Z,-0.60
2023-02-05T09:42:13.685Z,-0.45
2023-02-05T09:47:30.088Z,-0.32
2023-02-05T09:52:45.128Z,-0.35
2023-02-05T09:57:52.121Z,-0.42
2023-02-05T10:03:23.433Z,-0.48
2023-02-05T10:08:29.687Z,-0.59
2023-02-05T10:13:39.526Z,-0.70
2023-02-05T10:18:57.948Z,-0.76
2023-02-05T10:24:40.611Z,-0.74
2023-02-05T10:30:16.284Z,-0.69
2023-02-05T10:35:44.825Z,-0.69
2023-02-05T10:40:48.264Z,-0.69
2023-02-05T10:45:52.770Z,-0.66
2023-02-05T10:51:02.666Z,-0.60
2023-02-05T10:56:07.116Z,-0.57
2023-02-05T11:01:17.748Z,-0.50
2023-02-05T11:06:40.702Z,-0.42
2023-02-05T11:11:55.392Z,-0.40
2023-02-05T11:17:00.581Z,-0.31
2023-02-05T11:22:05.487Z,-0.21
2023-02-05T11:27:32.399Z,-0.22
2023-02-05T11:32:38.144Z,-0.23
2023-02-05T11:37:41.653Z,-0.27
2023-02-05T11:42:53.084Z,-0.32
2023-02-05T11:47:57.416Z,-0.30
2023-02-05T11:53:47.681Z,-0.23
2023-02-05T11:59:06.977Z,-0.16
2023-02-05T12:04:46.722Z,-0.19
2023-02-05T12:09:53.036Z,-0.18
2023-02-05T12:14:56.191Z,-0.16
2023-02-05T12:20:19.795Z,-0.14
2023-02-05T12:25:30.252Z,-0.07
2023-02-05T12:31:11.024Z,-0.02
2023-02-05T12:37:07.540Z,-0.00
2023-02-05T12:42:33.976Z,0.08
2023-02-05T12:48:40.910Z,0.02
2023-02-05T12:54:11.685Z,-0.07
2023-02-05T12:59:24.299Z,-0.10
2023-02-05T13:04:34.017Z,-0.03
2023-02-05T13:09:53.380Z,-0.01
2023-02-05T13:15:31.841Z,-0.08
2023-02-05T13:21:03.566Z,-0.10
2023-02-05T13:26:16.711Z,-0.08
2023-02-05T13:31:52.775Z,-0.09
2023-02-05T13:36:56.529Z,-0.15
2023-02-05T13:42:26.560Z,-0.17
2023-02-05T13:47:58.750Z,-0.24
2023-02-05T13:53:25.706Z,-0.27
2023-02-05T13:58:42.575Z,-0.24
2023-02-05T14:04:16.503Z,-0.23
2023-02-05T14:09:24.666Z,-0.27
2023-02-05T14:14:37.422Z,-0.32
2023-02-05T14:19:47.002Z,-0.36
2023-02-05T14:24:50.861Z,-0.39
2023-02-05T14:29:54.101Z,-0.43
2023-02-05T14:35:31.994Z,-0.47
2023-02-05T14:41:25.079Z,-0.53
2023-02-05T14:47:32.460Z,-0.62
2023-02-05T14:52:42.496Z,-0.65
2023-02-05T14:58:28.825Z,-0.61
2023-02-05T15:03:39.942Z,-0.59
2023-02-05T15:09:02.854Z,-0.63
2023-02-05T15:14:21.641Z,-0.67
2023-02-05T15:20:10.972Z,-0.73
2023-02-05T15:25:47.607Z,-0.78
2023-02-05T15:31:32.569Z,-0.82
2023-02-05T15:36:42.205Z,-0.86
2023-02-05T15:41:47.381Z,-0.93
2023-02-05T15:46:51.420Z,-0.97
2023-02-05T15:51:55.689Z,-0.95
2023-02-05T15:56:59.585Z,-0.94
2023-02-05T16:02:09.201Z,-0.92
2023-02-05T16:07:30.903Z,-0.91
2023-02-05T16:12:37.245Z,-0.92
2023-02-05T16:17:48.912Z,-0.95
2023-02-05T16:23:00.350Z,-0.98
2023-02-05T16:28:13.446Z,-1.00
2023-02-05T16:33:32.386Z,-1.02
2023-02-05T16:38:39.044Z,-1.06
2023-02-05T16:43:58.007Z,-1.08
2023-02-05T16:49:42.286Z,-1.12
2023-02-05T16:54:45.745Z,-1.12
2023-02-05T17:00:08.605Z,-1.09
2023-02-05T17:06:06.668Z,-1.03
2023-02-05T17:12:01.483Z,-1.00
2023-02-05T17:17:25.323Z,-1.01
2023-02-05T17:23:11.498Z,-1.04
2023-02-05T17:28:31.121Z,-1.08
2023-02-05T17:33:36.963Z,-1.14
2023-02-05T17:39:07.103Z,-1.19
2023-02-05T17:44:22.238Z,-1.28
2023-02-05T17:49:49.846Z,-1.36
2023-02-05T17:55:20.180Z,-1.37
2023-02-05T18:00:46.861Z,-1.40
2023-02-05T18:05:53.046Z,-1.42
2023-02-05T18:10:56.515Z,-1.41
2023-02-05T18:16:03.565Z,-1.38
2023-02-05T18:21:07.769Z,-1.33
2023-02-05T18:26:11.089Z,-1.29
2023-02-05T18:31:14.861Z,-1.30
2023-02-05T18:36:18.745Z,-1.34
2023-02-05T18:41:22.381Z,-1.43
2023-02-05T18:46:26.137Z,-1.53
2023-02-05T18:51:32.546Z,-1.64
2023-02-05T18:56:36.412Z,-1.75
2023-02-05T19:01:40.675Z,-1.89
2023-02-05T19:06:47.163Z,-2.00
2023-02-05T19:11:52.276Z,-2.12
2023-02-05T19:16:55.580Z,-2.19
2023-02-05T19:22:05.419Z,-2.27
2023-02-05T19:27:09.030Z,-2.35
2023-02-05T19:32:15.862Z,-2.43
2023-02-05T19:37:19.214Z,-2.52
2023-02-05T19:42:22.954Z,-2.61
2023-02-05T19:47:28.584Z,-2.71
2023-02-05T19:52:32.268Z,-2.93
2023-02-05T19:57:54.502Z,-3.14
2023-02-05T20:02:57.753Z,-3.28
2023-02-05T20:08:26.954Z,-3.41
2023-02-05T20:13:31.973Z,-3.51
2023-02-05T20:18:35.413Z,-3.57
2023-02-05T20:23:39.519Z,-3.64
2023-02-05T20:29:01.312Z,-3.67
2023-02-05T20:34:26.507Z,-3.63
2023-02-05T20:39:31.035Z,-3.66
2023-02-05T20:44:36.479Z,-3.67
2023-02-05T20:49:41.657Z,-3.72
2023-02-05T20:54:45.024Z,-3.76
2023-02-05T20:59:49.037Z,-3.83
2023-02-05T21:04:52.907Z,-3.94
2023-02-05T21:09:56.585Z,-4.02
2023-02-05T21:14:59.795Z,-4.18
2023-02-05T21:20:04.819Z,-4.28
2023-02-05T21:25:08.588Z,-4.37
2023-02-05T21:30:12.487Z,-4.42
2023-02-05T21:35:15.784Z,-4.35
2023-02-05T21:40:19.521Z,-4.38
2023-02-05T21:45:22.931Z,-4.47
2023-02-05T21:50:26.225Z,-4.50
2023-02-05T21:55:29.467Z,-4.59
2023-02-05T22:00:32.884Z,-4.65
2023-02-05T22:05:36.354Z,-4.77
2023-02-05T22:10:39.585Z,-4.86
2023-02-05T22:15:42.728Z,-4.95
2023-02-05T22:20:45.878Z,-5.00
2023-02-05T22:25:49.044Z,-5.03
2023-02-05T22:31:02.484Z,-4.95
2023-02-05T22:36:07.685Z,-4.97
2023-02-05T22:41:23.540Z,-4.90
2023-02-05T22:46:29.899Z,-4.91
2023-02-05T22:51:36.491Z,-5.05
2023-02-05T22:56:39.825Z,-5.09
2023-02-05T23:01:43.193Z,-5.15
2023-02-05T23:06:46.383Z,-5.14
2023-02-05T23:11:49.522Z,-5.23
2023-02-05T23:16:52.728Z,-5.30
2023-02-05T23:21:56.039Z,-5.34
2023-02-05T23:26:59.180Z,-5.35
2023-02-05T23:32:02.408Z,-5.31
2023-02-05T23:37:05.669Z,-5.28
2023-02-05T23:42:10.381Z,-5.26
2023-02-05T23:47:13.625Z,-5.25
2023-02-05T23:52:16.855Z,-5.21
2023-02-05T23:57:20.076Z,-5.17
